KGLS/GLS METAR and TAF weather

Enter ICAO airport designator
Station Type Date Time Source
KGLS METAR 2020/04/02 04:03 UTC NOAA

KGLS 020403Z AUTO 13012G18KT 10SM BKN028 21/14 A2998 RMK AO2 T02060144


Station Type Date Time Source
KGLS Decoded METAR 2020/04/02 04:03 UTC NOAA

SCHOLES FIELD, TX, United States (KGLS) 29-16N 094-52W 6M
Apr 02, 2020 - 12:03 AM EDT / 2020.04.02 0403 UTC
Wind: from the SE (130 degrees) at 14 MPH (12 KT) gusting to 21 MPH (18 KT):0
Visibility: 10 mile(s):0
Sky conditions: mostly cloudy
Temperature: 69.1 F (20.6 C)
Dew Point: 57.9 F (14.4 C)
Relative Humidity: 67%
Pressure (altimeter): 29.98 in. Hg (1015 hPa)
ob: KGLS 020403Z AUTO 13012G18KT 10SM BKN028 21/14 A2998 RMK AO2 T02060144
cycle: 4

Station Type Date Time Source
KGLS TAF 2020/04/01 18:46 UTC NOAA

TAF KGLS 011738Z 0118/0218 11013KT P6SM FEW025 SCT250
TEMPO 0212/0216 BKN025 BKN250
FM021600 13014KT P6SM BKN035 BKN250

Example: see airport list